createdAt,value
2023-01-22T16:28:47.336Z,41.90
2023-01-22T16:31:18.189Z,41.80
2023-01-22T16:33:47.331Z,41.80
2023-01-22T16:36:17.251Z,49.50
2023-01-22T16:38:44.703Z,44.00
2023-01-22T16:41:25.482Z,40.90
2023-01-22T16:43:54.959Z,43.90
2023-01-22T16:46:24.559Z,42.50
2023-01-22T16:48:55.651Z,47.70
2023-01-22T16:51:25.130Z,40.00
2023-01-22T16:53:52.894Z,41.20
2023-01-22T16:56:19.873Z,41.50
2023-01-22T16:58:47.017Z,39.50
2023-01-22T17:01:15.745Z,41.20
2023-01-22T17:03:43.131Z,41.30
2023-01-22T17:06:17.116Z,38.00
2023-01-22T17:08:44.195Z,39.00
2023-01-22T17:11:17.611Z,38.40
2023-01-22T17:13:44.680Z,39.20
2023-01-22T17:16:12.855Z,42.50
2023-01-22T17:18:40.178Z,40.90
2023-01-22T17:21:08.999Z,38.60
2023-01-22T17:23:36.358Z,46.30
2023-01-22T17:26:08.597Z,45.80
2023-01-22T17:28:37.700Z,42.60
2023-01-22T17:31:08.286Z,44.80
2023-01-22T17:33:35.842Z,41.40
2023-01-22T17:36:04.077Z,44.80
2023-01-22T17:38:33.172Z,43.00
2023-01-22T17:41:05.430Z,43.00
2023-01-22T17:43:33.513Z,43.60
2023-01-22T17:46:00.742Z,44.60
2023-01-22T17:48:28.216Z,41.80
2023-01-22T17:50:55.689Z,44.10
2023-01-22T17:53:22.679Z,45.20
2023-01-22T17:55:49.634Z,42.70
2023-01-22T17:58:18.067Z,41.60
2023-01-22T18:00:45.422Z,56.30
2023-01-22T18:03:14.406Z,40.20
2023-01-22T18:05:41.755Z,41.70
2023-01-22T18:08:08.868Z,45.00
2023-01-22T18:10:40.969Z,44.10
2023-01-22T18:13:07.932Z,43.30
2023-01-22T18:15:34.943Z,42.40
2023-01-22T18:18:02.096Z,40.50
2023-01-22T18:20:29.329Z,43.80
2023-01-22T18:22:56.363Z,41.10
2023-01-22T18:25:23.487Z,39.50
2023-01-22T18:27:50.908Z,40.60
2023-01-22T18:30:19.188Z,42.70
2023-01-22T18:32:46.262Z,43.20
2023-01-22T18:35:13.604Z,41.80
2023-01-22T18:37:40.571Z,43.80
2023-01-22T18:40:09.319Z,42.70
2023-01-22T18:42:36.313Z,46.90
2023-01-22T18:45:03.299Z,43.10
2023-01-22T18:47:34.064Z,47.30
2023-01-22T18:50:01.253Z,41.00
2023-01-22T18:52:28.358Z,41.50
2023-01-22T18:54:55.605Z,40.40
2023-01-22T18:57:22.822Z,45.10
2023-01-22T18:59:49.770Z,43.00
2023-01-22T19:02:21.281Z,44.40
2023-01-22T19:04:48.769Z,46.00
2023-01-22T19:07:16.056Z,42.30
2023-01-22T19:09:43.173Z,41.90
2023-01-22T19:12:13.693Z,44.20
2023-01-22T19:14:40.864Z,43.90
2023-01-22T19:17:07.988Z,45.40
2023-01-22T19:19:35.359Z,38.60
2023-01-22T19:22:03.476Z,40.10
2023-01-22T19:24:32.474Z,39.50
2023-01-22T19:26:59.946Z,39.70
2023-01-22T19:29:28.380Z,39.30
2023-01-22T19:31:57.550Z,39.60
2023-01-22T19:34:25.892Z,38.90
2023-01-22T19:36:54.749Z,39.50
2023-01-22T19:39:22.699Z,38.30
2023-01-22T19:41:50.262Z,35.20
2023-01-22T19:44:17.698Z,41.00
2023-01-22T19:46:45.832Z,35.40
2023-01-22T19:49:14.139Z,40.20
2023-01-22T19:51:41.886Z,38.30
2023-01-22T19:54:10.370Z,37.10
2023-01-22T19:56:39.378Z,39.10
2023-01-22T19:59:08.105Z,39.60
2023-01-22T20:01:36.905Z,39.90
2023-01-22T20:04:07.135Z,39.70
2023-01-22T20:06:34.172Z,39.50
2023-01-22T20:09:01.686Z,37.40
2023-01-22T20:11:28.825Z,39.30
2023-01-22T20:13:56.223Z,37.00
2023-01-22T20:16:26.032Z,39.50
2023-01-22T20:18:53.848Z,39.50
2023-01-22T20:21:22.448Z,34.00
2023-01-22T20:23:50.715Z,33.60
2023-01-22T20:26:19.579Z,34.50
2023-01-22T20:28:47.012Z,37.40
2023-01-22T20:31:17.673Z,35.90
2023-01-22T20:33:45.001Z,38.90
2023-01-22T20:36:15.360Z,36.90
2023-01-22T20:38:42.569Z,35.50
2023-01-22T20:41:10.334Z,40.00
2023-01-22T20:43:39.275Z,38.20
2023-01-22T20:46:09.058Z,39.20
2023-01-22T20:48:36.695Z,35.00
2023-01-22T20:51:04.292Z,33.70
2023-01-22T20:53:32.153Z,33.00
2023-01-22T20:56:05.823Z,33.90
2023-01-22T20:58:33.601Z,34.80
2023-01-22T21:01:05.833Z,34.40
2023-01-22T21:03:32.911Z,35.80
2023-01-22T21:06:02.191Z,33.80
2023-01-22T21:08:29.367Z,37.60
2023-01-22T21:11:02.058Z,37.60
2023-01-22T21:13:30.276Z,34.40
2023-01-22T21:15:57.971Z,35.80
2023-01-22T21:18:25.606Z,38.90
2023-01-22T21:20:53.051Z,34.50
2023-01-22T21:23:20.333Z,34.20
2023-01-22T21:25:47.304Z,37.30
2023-01-22T21:28:15.197Z,40.50
2023-01-22T21:30:42.391Z,34.50
2023-01-22T21:33:09.975Z,33.00
2023-01-22T21:35:37.363Z,33.70
2023-01-22T21:38:04.299Z,34.20
2023-01-22T21:40:32.701Z,39.30
2023-01-22T21:43:17.721Z,33.70
2023-01-22T21:46:02.951Z,38.80
2023-01-22T21:48:30.412Z,33.30
2023-01-22T21:50:57.724Z,32.20
2023-01-22T21:53:25.065Z,33.10
2023-01-22T21:55:56.315Z,33.10
2023-01-22T21:58:23.611Z,35.00
2023-01-22T22:00:51.159Z,34.90
2023-01-22T22:03:18.793Z,34.90
2023-01-22T22:05:55.726Z,34.20
2023-01-22T22:08:22.913Z,36.70
2023-01-22T22:10:53.139Z,34.10
2023-01-22T22:13:21.042Z,33.70
2023-01-22T22:15:48.206Z,31.90
2023-01-22T22:18:15.346Z,35.10
2023-01-22T22:20:42.565Z,32.20
2023-01-22T22:23:09.873Z,30.90
2023-01-22T22:25:36.875Z,35.00
2023-01-22T22:28:04.315Z,33.50
2023-01-22T22:30:31.702Z,34.40
2023-01-22T22:32:59.133Z,40.30
2023-01-22T22:35:26.233Z,35.70
2023-01-22T22:37:53.294Z,34.60
2023-01-22T22:40:20.995Z,32.90
2023-01-22T22:42:49.163Z,33.40
2023-01-22T22:45:17.202Z,36.40
2023-01-22T22:47:44.385Z,33.40
2023-01-22T22:50:13.103Z,34.80
2023-01-22T22:52:40.815Z,35.20
2023-01-22T22:55:09.735Z,39.80
2023-01-22T22:57:36.774Z,37.20
2023-01-22T23:00:09.456Z,36.60
2023-01-22T23:02:36.501Z,38.10
2023-01-22T23:05:03.800Z,35.30
2023-01-22T23:07:30.805Z,36.70
2023-01-22T23:09:58.261Z,33.20
2023-01-22T23:12:25.717Z,38.10
2023-01-22T23:14:53.228Z,37.90
2023-01-22T23:17:20.235Z,44.60
2023-01-22T23:19:47.475Z,35.90
2023-01-22T23:22:14.531Z,38.00
2023-01-22T23:24:41.760Z,41.20
2023-01-22T23:27:09.141Z,41.30
2023-01-22T23:29:36.300Z,35.60
2023-01-22T23:32:03.521Z,35.30
2023-01-22T23:34:30.990Z,38.30
2023-01-22T23:36:58.140Z,33.90
2023-01-22T23:39:25.068Z,33.80
2023-01-22T23:41:52.442Z,40.80
2023-01-22T23:44:19.804Z,41.40
2023-01-22T23:46:46.854Z,36.50
2023-01-22T23:49:14.204Z,39.60
2023-01-22T23:51:43.707Z,38.30
2023-01-22T23:54:11.077Z,36.90
2023-01-22T23:56:38.412Z,34.50
2023-01-22T23:59:05.737Z,40.40
